Time;durP1;ratioP1;P1;durP2;ratioP2;P2;SDS_P1;SDS_P2;PMS_P1;PMS_P2;Temp;Humidity;BMP_temperature;BMP_pressure;BME280_temperature;BME280_humidity;BME280_pressure;Samples;Min_cycle;Max_cycle;Signal;HPM_P1;HPM_P2
2023/08/07 00:07:56;;;;;;;3.83;2.10;;;;;;;12.93;83.86;98869.50;31093792;28;109855;-71
2023/08/07 00:22:57;;;;;;;3.70;2.10;;;;;;;12.93;83.74;98869.50;31093129;28;96684;-72
2023/08/07 00:37:57;;;;;;;4.65;2.25;;;;;;;12.92;83.85;98884.75;31089777;28;103936;-72
2023/08/07 00:52:58;;;;;;;3.20;2.03;;;;;;;12.94;83.75;98860.47;31089073;28;111777;-69
2023/08/07 01:07:58;;;;;;;3.55;2.20;;;;;;;13.03;83.52;98848.47;31088589;28;97050;-70
2023/08/07 01:22:59;;;;;;;3.92;2.25;;;;;;;13.14;83.25;98858.44;31086682;28;96923;-69
2023/08/07 01:38:00;;;;;;;3.97;2.20;;;;;;;13.07;82.99;98860.38;31085809;28;100990;-70
2023/08/07 01:53:02;;;;;;;4.57;2.43;;;;;;;12.93;83.30;98853.47;31108466;28;97999;-71
2023/08/07 02:08:03;;;;;;;4.93;3.90;;;;;;;12.93;83.10;98850.81;31124771;28;97131;-72
2023/08/07 02:23:04;;;;;;;5.23;2.37;;;;;;;13.01;83.21;98858.53;31123355;28;97082;-71
2023/08/07 02:38:04;;;;;;;3.17;1.80;;;;;;;13.10;83.03;98859.91;31120801;28;97633;-72
2023/08/07 02:53:04;;;;;;;3.83;2.70;;;;;;;13.15;83.00;98857.41;31119905;28;107270;-71
2023/08/07 03:08:05;;;;;;;4.28;2.60;;;;;;;13.25;83.34;98858.78;31102739;28;97120;-71
2023/08/07 03:23:05;;;;;;;4.40;3.05;;;;;;;13.39;83.37;98878.22;31097889;28;97298;-72
2023/08/07 03:38:05;;;;;;;6.82;3.15;;;;;;;13.61;83.77;98878.59;31095687;28;97248;-71
2023/08/07 03:53:07;;;;;;;4.28;3.17;;;;;;;13.80;83.06;98904.31;31092979;28;97024;-71
2023/08/07 04:08:07;;;;;;;5.93;3.10;;;;;;;13.98;83.34;98908.03;31090575;28;97500;-72
2023/08/07 04:23:08;;;;;;;6.07;3.10;;;;;;;14.16;83.34;98920.59;31089013;28;96757;-71
2023/08/07 04:38:09;;;;;;;6.90;3.13;;;;;;;14.13;83.10;98939.78;31086192;28;96819;-70
2023/08/07 04:53:09;;;;;;;5.22;3.08;;;;;;;14.07;83.26;98925.44;31083643;28;97131;-69
2023/08/07 05:08:09;;;;;;;4.55;2.42;;;;;;;14.17;82.83;98938.31;31082573;28;97191;-77
2023/08/07 05:23:10;;;;;;;5.03;2.85;;;;;;;14.47;82.29;98950.91;31082740;28;97343;-70
2023/08/07 05:38:11;;;;;;;4.53;2.70;;;;;;;14.52;82.05;98951.88;31084680;28;97100;-75
2023/08/07 05:53:11;;;;;;;5.07;2.30;;;;;;;14.69;81.00;98970.88;31080445;28;101471;-73
2023/08/07 06:08:11;;;;;;;3.85;2.42;;;;;;;14.82;81.45;98980.56;31084910;28;97537;-75
2023/08/07 06:23:12;;;;;;;8.55;2.20;;;;;;;14.81;80.59;99000.38;31079068;28;96996;-73
2023/08/07 06:38:13;;;;;;;3.17;2.00;;;;;;;14.72;81.06;99007.94;31088108;28;97561;-74
2023/08/07 06:53:13;;;;;;;5.00;2.40;;;;;;;14.83;80.72;99025.13;31098368;28;106552;-74
2023/08/07 07:08:13;;;;;;;2.72;1.67;;;;;;;15.17;79.95;99051.47;31098229;28;109214;-77
2023/08/07 07:23:14;;;;;;;3.22;1.92;;;;;;;15.76;79.39;99070.41;31093702;28;108379;-75
2023/08/07 07:38:15;;;;;;;3.00;1.50;;;;;;;16.42;77.52;99065.72;31096467;28;96793;-75
2023/08/07 07:53:16;;;;;;;2.87;1.67;;;;;;;17.64;77.07;99067.50;31089437;28;97668;-72
2023/08/07 08:08:17;;;;;;;5.90;2.28;;;;;;;18.98;74.94;99082.88;31091307;28;97330;-72
2023/08/07 08:23:17;;;;;;;2.88;1.50;;;;;;;19.81;71.50;99098.03;31094342;28;96785;-72
2023/08/07 08:38:17;;;;;;;3.47;1.80;;;;;;;20.55;67.69;99095.53;31094375;28;104804;-76
2023/08/07 08:53:20;;;;;;;12.07;4.47;;;;;;;20.66;65.25;99104.53;31091623;28;97240;-75
2023/08/07 09:08:22;;;;;;;3.77;1.97;;;;;;;20.37;63.62;99123.84;31085755;28;96969;-65
2023/08/07 09:23:24;;;;;;;3.17;2.00;;;;;;;23.03;60.24;99126.31;31083292;28;97111;-75
2023/08/07 09:38:28;;;;;;;4.80;2.20;;;;;;;23.02;54.99;99143.69;31083837;28;97928;-65
2023/08/07 09:53:30;;;;;;;4.63;1.97;;;;;;;23.06;53.04;99136.59;31081621;28;97553;-72
2023/08/07 10:08:31;;;;;;;5.33;2.20;;;;;;;23.21;49.17;99154.75;31085691;28;97454;-74
2023/08/07 10:23:34;;;;;;;2.00;1.40;;;;;;;23.76;45.45;99160.16;31102799;28;97221;-78
2023/08/07 10:38:35;;;;;;;2.57;1.20;;;;;;;24.49;42.52;99155.75;31116232;28;97109;-76
2023/08/07 10:53:44;;;;;;;2.00;1.30;;;;;;;25.93;40.59;99158.53;31099949;28;97377;-79
2023/08/07 11:08:44;;;;;;;2.80;1.23;;;;;;;25.95;38.04;99157.16;31098878;28;97193;-73
2023/08/07 11:23:45;;;;;;;3.30;1.35;;;;;;;24.46;39.38;99145.44;31091692;28;98019;-73
2023/08/07 11:38:46;;;;;;;6.03;1.63;;;;;;;22.25;43.72;99177.22;31090538;28;97244;-70
2023/08/07 11:53:46;;;;;;;;;;;;;;;25.04;41.52;99176.41;31090611;28;97561;-76
2023/08/07 12:08:51;;;;;;;3.33;2.47;;;;;;;25.07;40.01;99195.72;31091546;28;97180;-69
2023/08/07 12:23:54;;;;;;;4.00;1.43;;;;;;;22.42;43.69;99228.53;31084085;28;96952;-75
2023/08/07 12:38:55;;;;;;;4.70;2.80;;;;;;;22.32;46.30;99248.31;31099156;28;97573;-73
2023/08/07 12:53:55;;;;;;;4.47;1.45;;;;;;;23.53;44.88;99254.88;31101325;28;96793;-70
2023/08/07 13:08:56;;;;;;;;;;;;;;;22.81;44.41;99274.09;31068151;28;110240;-72
2023/08/07 13:23:56;;;;;;;2.77;1.10;;;;;;;21.76;46.88;99300.53;31082966;28;98096;-74
2023/08/07 13:38:57;;;;;;;3.10;1.37;;;;;;;21.03;48.86;99287.72;31079282;28;97860;-72
2023/08/07 13:53:58;;;;;;;1.33;1.20;;;;;;;22.07;48.25;99285.16;31078677;28;96657;-78
2023/08/07 14:08:58;;;;;;;4.00;1.47;;;;;;;22.63;48.14;99281.69;31079269;28;109942;-78
2023/08/07 14:23:58;;;;;;;5.05;1.23;;;;;;;21.39;49.39;99296.03;31080234;28;97064;-72
2023/08/07 14:38:59;;;;;;;1.70;0.97;;;;;;;21.71;48.27;99295.94;31077526;28;97391;-72
2023/08/07 14:53:59;;;;;;;2.10;0.70;;;;;;;21.57;48.25;99311.88;31091218;28;97233;-72
2023/08/07 15:08:59;;;;;;;1.53;0.60;;;;;;;21.61;47.87;99321.09;31208213;28;100970;-79
2023/08/07 15:24:00;;;;;;;1.73;0.60;;;;;;;20.65;49.51;99319.34;31214187;27;102064;-76
2023/08/07 15:39:00;;;;;;;0.90;0.70;;;;;;;20.24;50.66;99326.03;31216597;28;98064;-74
2023/08/07 15:54:02;;;;;;;1.40;0.73;;;;;;;20.05;51.62;99327.44;31216765;27;96735;-79
2023/08/07 16:09:02;;;;;;;1.23;0.70;;;;;;;20.06;52.18;99353.41;31216909;27;97175;-83
2023/08/07 16:24:03;;;;;;;3.60;0.80;;;;;;;19.86;52.61;99368.34;31237896;27;97296;-78
2023/08/07 16:39:03;;;;;;;2.33;0.80;;;;;;;19.46;53.15;99380.19;31212665;27;97298;-76
2023/08/07 16:54:04;;;;;;;1.05;0.70;;;;;;;18.86;55.38;99417.59;31212112;27;97388;-75
2023/08/07 17:09:04;;;;;;;1.40;0.60;;;;;;;18.22;56.83;99426.69;31210188;28;104870;-80
2023/08/07 17:24:05;;;;;;;1.58;0.70;;;;;;;17.82;58.23;99435.50;31209781;27;96757;-78
2023/08/07 17:39:05;;;;;;;1.88;0.60;;;;;;;17.58;59.35;99440.13;31207833;28;96767;-77
2023/08/07 17:54:05;;;;;;;3.60;0.88;;;;;;;17.29;60.22;99460.69;31210053;28;97681;-87
2023/08/07 18:09:06;;;;;;;1.73;0.63;;;;;;;16.88;62.20;99465.81;31207165;27;103032;-80
2023/08/07 18:24:06;;;;;;;1.88;0.95;;;;;;;16.62;63.45;99467.03;31207332;28;103653;-80
2023/08/07 18:39:06;;;;;;;3.95;0.77;;;;;;;16.37;64.23;99487.59;31141272;28;97293;-75
2023/08/07 18:54:07;;;;;;;2.55;1.00;;;;;;;16.06;65.31;99513.59;31092417;28;107656;-76
2023/08/07 19:09:08;;;;;;;3.63;0.90;;;;;;;15.79;65.83;99520.22;31092264;28;97697;-79
2023/08/07 19:24:08;;;;;;;1.23;0.70;;;;;;;15.53;66.72;99546.28;31090457;28;97165;-78
2023/08/07 19:39:08;;;;;;;3.03;0.57;;;;;;;15.44;67.78;99567.19;31087429;28;98503;-71
2023/08/07 19:54:09;;;;;;;1.60;0.90;;;;;;;15.51;67.79;99583.25;31085279;28;97324;-72
2023/08/07 20:09:09;;;;;;;3.83;0.60;;;;;;;15.33;67.44;99605.44;31085266;28;97458;-73
2023/08/07 20:24:10;;;;;;;1.75;1.10;;;;;;;15.26;67.24;99623.47;31054360;28;97805;-72
2023/08/07 20:39:12;;;;;;;3.13;0.80;;;;;;;14.75;67.13;99631.31;30985930;28;96995;-72
2023/08/07 20:54:13;;;;;;;2.07;0.90;;;;;;;14.38;67.80;99647.03;31072319;28;98696;-71
2023/08/07 21:09:13;;;;;;;3.88;1.10;;;;;;;14.07;68.24;99648.50;31079626;28;97167;-72
2023/08/07 21:24:13;;;;;;;4.68;1.30;;;;;;;13.82;68.70;99673.22;31080873;28;100716;-72
2023/08/07 21:39:14;;;;;;;5.80;1.42;;;;;;;13.65;68.88;99669.25;31075472;28;97330;-72
2023/08/07 21:54:14;;;;;;;3.13;1.08;;;;;;;13.57;69.16;99664.09;30962195;28;96734;-73
2023/08/07 22:09:14;;;;;;;6.47;1.50;;;;;;;13.51;69.14;99679.94;30971722;28;103656;-73
2023/08/07 22:24:15;;;;;;;3.53;1.38;;;;;;;13.50;69.20;99699.69;30982196;28;97155;-73
2023/08/07 22:39:15;;;;;;;3.30;1.10;;;;;;;13.43;69.17;99708.72;30979559;28;97468;-73
2023/08/07 22:54:15;;;;;;;4.03;1.60;;;;;;;13.35;69.18;99715.03;30978337;28;107024;-73
2023/08/07 23:09:16;;;;;;;3.22;1.30;;;;;;;13.59;69.15;99745.03;30974553;28;97057;-74
2023/08/07 23:24:16;;;;;;;5.00;1.30;;;;;;;13.70;67.89;99742.56;30974619;28;97432;-73
2023/08/07 23:39:16;;;;;;;3.42;1.45;;;;;;;13.61;67.43;99756.34;30974115;28;107709;-72
2023/08/07 23:54:17;;;;;;;7.93;1.25;;;;;;;13.76;67.43;99758.84;30972760;28;97287;-74
